createdAt,value
2023-04-14T00:00:38.346Z,99058.50
2023-04-14T00:01:20.289Z,99052.28
2023-04-14T00:02:02.010Z,99006.88
2023-04-14T00:02:43.870Z,99062.44
2023-04-14T00:03:25.887Z,99065.41
2023-04-14T00:04:07.936Z,99040.31
2023-04-14T00:04:53.526Z,99020.94
2023-04-14T00:05:35.458Z,99063.44
2023-04-14T00:06:17.384Z,99043.09
2023-04-14T00:07:00.031Z,99051.31
2023-04-14T00:07:41.857Z,99060.31
2023-04-14T00:08:23.647Z,99060.50
2023-04-14T00:09:05.325Z,99059.81
2023-04-14T00:09:47.113Z,99053.28
2023-04-14T00:10:28.803Z,99070.53
2023-04-14T00:11:10.700Z,99055.75
2023-04-14T00:11:52.762Z,99064.63
2023-04-14T00:12:34.433Z,99055.75
2023-04-14T00:13:16.100Z,99047.03
2023-04-14T00:13:58.224Z,99039.16
2023-04-14T00:14:39.864Z,99061.16
2023-04-14T00:15:21.963Z,99068.72
2023-04-14T00:16:06.124Z,99066.41
2023-04-14T00:16:47.855Z,99050.34
2023-04-14T00:17:31.150Z,99064.44
2023-04-14T00:18:12.878Z,99051.97
2023-04-14T00:18:54.547Z,99039.16
2023-04-14T00:19:36.169Z,99042.97
2023-04-14T00:20:17.770Z,99059.50
2023-04-14T00:20:59.458Z,99033.75
2023-04-14T00:21:41.233Z,99050.34
2023-04-14T00:22:22.962Z,99049.53
2023-04-14T00:23:04.689Z,99062.47
2023-04-14T00:23:46.297Z,99050.66
2023-04-14T00:24:27.924Z,99058.38
2023-04-14T00:25:09.992Z,99046.41
2023-04-14T00:25:51.684Z,99057.22
2023-04-14T00:26:33.435Z,99055.09
2023-04-14T00:27:15.705Z,99053.63
2023-04-14T00:27:57.337Z,99045.56
2023-04-14T00:28:39.031Z,99043.78
2023-04-14T00:29:20.819Z,99050.00
2023-04-14T00:30:02.496Z,99036.38
2023-04-14T00:30:45.509Z,99050.63
2023-04-14T00:31:27.365Z,99049.19
2023-04-14T00:32:09.047Z,99046.22
2023-04-14T00:32:50.839Z,99043.75
2023-04-14T00:33:32.637Z,99027.50
2023-04-14T00:34:16.469Z,99036.88
2023-04-14T00:35:00.108Z,99028.03
2023-04-14T00:35:41.823Z,99043.75
2023-04-14T00:36:23.557Z,99035.88
2023-04-14T00:37:05.259Z,99040.16
2023-04-14T00:37:47.024Z,99045.59
2023-04-14T00:38:28.719Z,99043.13
2023-04-14T00:39:10.622Z,99039.69
2023-04-14T00:39:52.340Z,99038.84
2023-04-14T00:40:34.033Z,99038.84
2023-04-14T00:41:15.698Z,99047.03
2023-04-14T00:41:57.423Z,99028.84
2023-04-14T00:42:45.632Z,99041.63
2023-04-14T00:43:27.418Z,99049.34
2023-04-14T00:44:09.717Z,99053.44
2023-04-14T00:44:51.358Z,99056.22
2023-04-14T00:45:44.715Z,99045.06
2023-04-14T00:46:26.592Z,99048.69
2023-04-14T00:47:08.193Z,99047.03
2023-04-14T00:47:50.772Z,99048.00
2023-04-14T00:48:32.771Z,99037.06
2023-04-14T00:49:15.562Z,99029.00
2023-04-14T00:49:58.396Z,99050.31
2023-04-14T00:50:40.302Z,99027.34
2023-04-14T00:51:23.577Z,99040.47
2023-04-14T00:52:06.020Z,98992.06
2023-04-14T00:52:50.067Z,99048.84
2023-04-14T00:53:32.711Z,99036.69
2023-04-14T00:54:17.478Z,99038.16
2023-04-14T00:55:00.786Z,99049.31
2023-04-14T00:55:42.980Z,99048.50
2023-04-14T00:56:26.483Z,99052.91
2023-04-14T00:57:09.337Z,99038.47
2023-04-14T00:57:51.136Z,99044.72
2023-04-14T00:58:32.834Z,99054.56
2023-04-14T00:59:16.882Z,99038.31
2023-04-14T01:00:00.761Z,99046.19
2023-04-14T01:00:42.635Z,99055.84
2023-04-14T01:01:49.238Z,99056.84
2023-04-14T01:02:34.147Z,99045.38
2023-04-14T01:03:16.603Z,99059.13
2023-04-14T01:03:58.576Z,99051.75
2023-04-14T01:04:52.892Z,99052.41
2023-04-14T01:05:36.277Z,99053.88
2023-04-14T01:06:17.865Z,99050.75
2023-04-14T01:06:59.473Z,99054.50
2023-04-14T01:07:41.578Z,99061.03
2023-04-14T01:08:24.966Z,99056.31
2023-04-14T01:09:07.028Z,99059.25
2023-04-14T01:09:50.171Z,99052.00
2023-04-14T01:10:41.240Z,99058.06
2023-04-14T01:11:40.131Z,99042.47
2023-04-14T01:12:30.596Z,99055.94
2023-04-14T01:13:35.961Z,99060.66
2023-04-14T01:14:42.890Z,99060.97
2023-04-14T01:15:35.558Z,99065.38
2023-04-14T01:16:31.829Z,99068.69
2023-04-14T01:17:52.572Z,99069.53
2023-04-14T01:18:43.256Z,99074.00
2023-04-14T01:19:24.787Z,99070.72
2023-04-14T01:20:32.976Z,99069.28
2023-04-14T01:21:22.804Z,99079.28
2023-04-14T01:22:06.287Z,99067.63
2023-04-14T01:22:54.204Z,99071.09
2023-04-14T01:23:41.861Z,99064.84
2023-04-14T01:24:39.784Z,99075.03
2023-04-14T01:25:39.547Z,99073.91
2023-04-14T01:26:31.910Z,99079.16
2023-04-14T01:27:35.307Z,99077.34
2023-04-14T01:28:55.543Z,99071.59
2023-04-14T01:29:55.442Z,99076.84
2023-04-14T01:30:58.618Z,99066.19
2023-04-14T01:31:55.234Z,99080.44
2023-04-14T01:32:43.028Z,99075.66
2023-04-14T01:33:26.953Z,99080.88
2023-04-14T01:34:34.864Z,99084.94
2023-04-14T01:35:26.333Z,99079.97
2023-04-14T01:36:22.439Z,99078.00
2023-04-14T01:37:31.493Z,99083.56
2023-04-14T01:38:22.347Z,99084.34
2023-04-14T01:39:08.329Z,99087.13
2023-04-14T01:39:53.836Z,99068.06
2023-04-14T01:40:41.222Z,99066.59
2023-04-14T01:41:24.183Z,99087.13
2023-04-14T01:42:11.273Z,99071.69
2023-04-14T01:43:02.194Z,99057.69
2023-04-14T01:43:47.987Z,99073.66
2023-04-14T01:44:31.545Z,99082.34
2023-04-14T01:45:23.043Z,99075.59
2023-04-14T01:46:07.404Z,99086.31
2023-04-14T01:46:55.052Z,99086.31
2023-04-14T01:47:37.968Z,99067.56
2023-04-14T01:48:20.158Z,99089.59
2023-04-14T01:49:02.838Z,99081.72
2023-04-14T01:49:45.721Z,99098.16
2023-04-14T01:50:28.518Z,99009.69
2023-04-14T01:51:13.515Z,99100.34
2023-04-14T01:51:55.736Z,99097.88
2023-04-14T01:52:39.316Z,99095.63
2023-04-14T01:53:23.040Z,99096.78
2023-04-14T01:54:06.103Z,99107.78
2023-04-14T01:54:50.827Z,99106.66
2023-04-14T01:55:36.084Z,99103.50
2023-04-14T01:56:19.930Z,99104.69
2023-04-14T01:57:03.752Z,99104.34
2023-04-14T01:57:48.297Z,99092.72
2023-04-14T01:58:32.145Z,99084.50
2023-04-14T01:59:15.571Z,99103.22
2023-04-14T02:00:00.946Z,99099.44
2023-04-14T02:00:44.222Z,99102.25
2023-04-14T02:01:27.831Z,99109.13
2023-04-14T02:02:12.831Z,99097.00
2023-04-14T02:02:55.814Z,99072.03
2023-04-14T02:03:39.442Z,99101.44
2023-04-14T02:04:25.536Z,99088.00
2023-04-14T02:05:09.916Z,99102.91
2023-04-14T02:05:55.388Z,99097.97
2023-04-14T02:06:38.872Z,99092.41
2023-04-14T02:07:22.040Z,99093.25
2023-04-14T02:08:07.455Z,99094.56
2023-04-14T02:08:50.913Z,99099.00
2023-04-14T02:09:34.020Z,99099.16
2023-04-14T02:10:19.942Z,99102.09
2023-04-14T02:11:02.498Z,99092.94
2023-04-14T02:11:49.002Z,99087.53
2023-04-14T02:12:31.420Z,99091.47
2023-04-14T02:13:14.371Z,99094.91
2023-04-14T02:13:56.631Z,99102.97
2023-04-14T02:14:42.584Z,99088.34
2023-04-14T02:15:26.176Z,99100.97
2023-04-14T02:16:10.852Z,99045.00
2023-04-14T02:16:54.156Z,99099.16
2023-04-14T02:17:36.717Z,99096.03
2023-04-14T02:18:22.156Z,99098.81
2023-04-14T02:19:05.185Z,99102.25
2023-04-14T02:19:48.574Z,99084.53
2023-04-14T02:20:30.452Z,99100.13
2023-04-14T02:21:15.232Z,99114.06
2023-04-14T02:21:58.602Z,99104.53
2023-04-14T02:22:40.432Z,99101.09
2023-04-14T02:23:22.034Z,99097.50
2023-04-14T02:24:03.895Z,99085.16
2023-04-14T02:24:47.747Z,99096.38
2023-04-14T02:25:33.623Z,99094.22
2023-04-14T02:26:18.639Z,99083.72
2023-04-14T02:27:10.568Z,99096.16
2023-04-14T02:27:58.674Z,99096.00
2023-04-14T02:28:50.069Z,99098.41
2023-04-14T02:29:33.758Z,99098.25
2023-04-14T02:30:20.100Z,99095.44
2023-04-14T02:31:07.429Z,99102.16
2023-04-14T02:32:09.594Z,99102.00
2023-04-14T02:32:57.351Z,99090.84
2023-04-14T02:33:39.939Z,99097.44
2023-04-14T02:34:25.249Z,99086.75
2023-04-14T02:35:13.575Z,99101.53
2023-04-14T02:36:04.446Z,99100.34
2023-04-14T02:36:52.376Z,99100.97
2023-04-14T02:37:41.417Z,99090.97
2023-04-14T02:38:33.672Z,99101.94
2023-04-14T02:39:19.375Z,99105.84
2023-04-14T02:40:05.955Z,99103.56
2023-04-14T02:40:48.826Z,99095.72
2023-04-14T02:41:32.723Z,99100.19
2023-04-14T02:42:16.297Z,99101.63
2023-04-14T02:43:02.918Z,99095.03
2023-04-14T02:43:49.244Z,99107.56
2023-04-14T02:44:35.486Z,99109.19
2023-04-14T02:45:22.525Z,99046.88
2023-04-14T02:46:06.456Z,99119.72
2023-04-14T02:46:57.779Z,99109.16
2023-04-14T02:47:47.055Z,99116.38
2023-04-14T02:48:32.444Z,99120.09
2023-04-14T02:49:16.443Z,99124.00
2023-04-14T02:50:00.463Z,99118.88
2023-04-14T02:50:46.426Z,99111.13
2023-04-14T02:51:35.632Z,99099.75
2023-04-14T02:52:19.195Z,99126.69
2023-04-14T02:53:03.675Z,99126.97
2023-04-14T02:53:50.721Z,99127.97
2023-04-14T02:54:46.538Z,99127.28
2023-04-14T02:55:29.616Z,99130.69
2023-04-14T02:56:12.116Z,99134.47
2023-04-14T02:56:57.443Z,99136.41
2023-04-14T02:57:41.176Z,99125.88
2023-04-14T02:58:25.495Z,99143.28
2023-04-14T02:59:07.814Z,99138.88
2023-04-14T02:59:52.618Z,99140.22
2023-04-14T03:00:35.660Z,99136.97
2023-04-14T03:01:19.274Z,99133.75
2023-04-14T03:02:06.015Z,99109.47
2023-04-14T03:02:53.328Z,99141.88
2023-04-14T03:03:37.654Z,99139.31
2023-04-14T03:04:23.542Z,99140.50
2023-04-14T03:05:06.707Z,99114.88
2023-04-14T03:05:57.238Z,99129.88
2023-04-14T03:06:39.550Z,99145.16
2023-04-14T03:07:21.883Z,99135.19
2023-04-14T03:08:05.138Z,99129.09
2023-04-14T03:08:47.848Z,99127.84
2023-04-14T03:09:32.043Z,99130.00
2023-04-14T03:10:14.665Z,99129.00
2023-04-14T03:10:57.203Z,99128.19
2023-04-14T03:11:42.226Z,99129.81
2023-04-14T03:12:25.337Z,99138.50
2023-04-14T03:13:07.879Z,99131.56
2023-04-14T03:13:53.702Z,99136.00
2023-04-14T03:14:37.474Z,99134.69
2023-04-14T03:15:21.641Z,99126.09
2023-04-14T03:16:04.240Z,99132.81
2023-04-14T03:16:49.498Z,99121.78
2023-04-14T03:17:32.784Z,99132.31
2023-04-14T03:18:15.739Z,99125.38
2023-04-14T03:18:58.341Z,99126.50
2023-04-14T03:19:41.696Z,99132.84
2023-04-14T03:20:23.838Z,99130.84
2023-04-14T03:21:07.548Z,99121.94
2023-04-14T03:21:54.644Z,99091.03
2023-04-14T03:22:40.720Z,99120.69
2023-04-14T03:23:27.366Z,99117.88
2023-04-14T03:24:18.042Z,99126.03
2023-04-14T03:25:00.675Z,99134.03
2023-04-14T03:25:46.526Z,99135.19
2023-04-14T03:26:36.945Z,99125.34
2023-04-14T03:27:26.212Z,99128.34
2023-04-14T03:28:15.921Z,99122.97
2023-04-14T03:29:02.447Z,99128.78
2023-04-14T03:29:48.554Z,99127.19
2023-04-14T03:30:33.740Z,99113.22
2023-04-14T03:31:19.045Z,99129.72
2023-04-14T03:32:06.985Z,99129.53
2023-04-14T03:32:52.518Z,99130.88
2023-04-14T03:33:35.621Z,99110.56
2023-04-14T03:34:19.087Z,99126.69
2023-04-14T03:35:07.787Z,99128.97
2023-04-14T03:35:52.787Z,99113.38
2023-04-14T03:36:36.605Z,99131.28
2023-04-14T03:37:24.305Z,99118.00
2023-04-14T03:38:09.727Z,99098.13
2023-04-14T03:38:55.341Z,99119.81
2023-04-14T03:39:39.155Z,99119.13
2023-04-14T03:40:23.898Z,99098.28
2023-04-14T03:41:07.375Z,99124.06
2023-04-14T03:41:51.706Z,99111.38
2023-04-14T03:42:36.322Z,98917.84
2023-04-14T03:43:22.416Z,99117.38
2023-04-14T03:44:15.618Z,99117.03
2023-04-14T03:45:01.578Z,99115.97
2023-04-14T03:45:49.192Z,99126.25
2023-04-14T03:46:31.377Z,99119.47
2023-04-14T03:47:14.452Z,99131.06
2023-04-14T03:48:02.576Z,99122.63
2023-04-14T03:48:50.381Z,99133.25
2023-04-14T03:49:33.310Z,99126.94
2023-04-14T03:50:17.464Z,99114.78
2023-04-14T03:51:02.155Z,99136.25
2023-04-14T03:51:49.537Z,99132.66
2023-04-14T03:52:36.187Z,99133.31
2023-04-14T03:53:19.369Z,99137.13
2023-04-14T03:54:03.014Z,99136.16
2023-04-14T03:54:45.900Z,99134.38
2023-04-14T03:55:31.847Z,99142.75
2023-04-14T03:56:15.490Z,99135.56
2023-04-14T03:56:58.992Z,99142.81
2023-04-14T03:57:43.936Z,99142.50
2023-04-14T03:58:29.308Z,99138.78
2023-04-14T03:59:15.301Z,99143.69
2023-04-14T04:00:00.212Z,99143.53
2023-04-14T04:00:43.003Z,99143.53
2023-04-14T04:01:26.849Z,99124.34
2023-04-14T04:02:09.748Z,99138.91
2023-04-14T04:02:52.319Z,99139.00
2023-04-14T04:03:36.839Z,99144.16
2023-04-14T04:04:19.177Z,99142.81
2023-04-14T04:05:01.924Z,99135.50
2023-04-14T04:05:44.764Z,99153.81
2023-04-14T04:06:27.709Z,99143.09
2023-04-14T04:07:13.142Z,99114.47
2023-04-14T04:07:58.711Z,99135.03
2023-04-14T04:08:41.655Z,99123.22
2023-04-14T04:09:25.254Z,99143.25
2023-04-14T04:10:08.203Z,99146.94
2023-04-14T04:10:51.400Z,99123.13
2023-04-14T04:11:34.969Z,99134.00
2023-04-14T04:12:20.432Z,99148.63
2023-04-14T04:13:03.238Z,99159.31
2023-04-14T04:13:48.372Z,99122.41
2023-04-14T04:14:32.015Z,99146.63
2023-04-14T04:15:13.849Z,99158.75
2023-04-14T04:15:58.460Z,99149.47
2023-04-14T04:16:42.558Z,99143.56
2023-04-14T04:17:26.411Z,99143.09
2023-04-14T04:18:10.976Z,99121.91
2023-04-14T04:18:54.622Z,99131.16
2023-04-14T04:19:44.651Z,99139.59
2023-04-14T04:20:27.142Z,99130.53
2023-04-14T04:21:10.431Z,99136.97
2023-04-14T04:21:57.444Z,99114.84
2023-04-14T04:22:41.888Z,99141.81
2023-04-14T04:23:25.680Z,99106.09
2023-04-14T04:24:10.267Z,99137.22
2023-04-14T04:24:54.666Z,99121.31
2023-04-14T04:25:41.560Z,99128.88
2023-04-14T04:26:31.373Z,99145.47
2023-04-14T04:27:26.681Z,99116.38
2023-04-14T04:28:12.737Z,99137.91
2023-04-14T04:28:57.934Z,99134.47
2023-04-14T04:29:40.807Z,99139.94
2023-04-14T04:30:24.015Z,99096.50
2023-04-14T04:31:06.733Z,99136.34
2023-04-14T04:31:48.553Z,99137.16
2023-04-14T04:32:30.858Z,99105.47
2023-04-14T04:33:13.956Z,99139.59
2023-04-14T04:33:58.795Z,99131.09
2023-04-14T04:34:41.251Z,99146.19
2023-04-14T04:35:24.624Z,99133.72
2023-04-14T04:36:07.379Z,99132.94
2023-04-14T04:36:54.565Z,99139.31
2023-04-14T04:37:39.194Z,99138.63
2023-04-14T04:38:20.996Z,99138.69
2023-04-14T04:39:03.317Z,99125.72
2023-04-14T04:39:49.167Z,99132.16
2023-04-14T04:40:38.577Z,99133.81
2023-04-14T04:41:28.354Z,99139.41
2023-04-14T04:42:11.917Z,99085.69
2023-04-14T04:42:53.503Z,99131.53
2023-04-14T04:43:35.412Z,99074.59
2023-04-14T04:44:17.165Z,99117.19
2023-04-14T04:44:58.953Z,99129.50
2023-04-14T04:45:59.039Z,99135.03
2023-04-14T04:46:55.388Z,99120.63
2023-04-14T04:47:40.271Z,99136.00
2023-04-14T04:48:21.867Z,99106.97
2023-04-14T04:49:03.684Z,99119.72
2023-04-14T04:49:45.331Z,99132.41
2023-04-14T04:50:26.887Z,99126.16
2023-04-14T04:51:08.514Z,99146.81
2023-04-14T04:51:50.257Z,99134.69
2023-04-14T04:52:33.598Z,99129.75
2023-04-14T04:53:15.439Z,99132.81
2023-04-14T04:53:57.014Z,99131.03
2023-04-14T04:54:38.602Z,99140.38
2023-04-14T04:55:21.075Z,99102.56
2023-04-14T04:56:02.865Z,99126.56
2023-04-14T04:56:44.470Z,99137.22
2023-04-14T04:57:26.071Z,99143.28
2023-04-14T04:58:11.174Z,99134.56
2023-04-14T04:58:53.250Z,99143.75
2023-04-14T04:59:36.606Z,99143.09
2023-04-14T05:00:22.811Z,99111.00
2023-04-14T05:01:09.372Z,99147.94
2023-04-14T05:01:51.447Z,99144.66
2023-04-14T05:02:33.302Z,99084.66
2023-04-14T05:03:15.025Z,99135.00
2023-04-14T05:03:56.996Z,99141.06
2023-04-14T05:04:38.669Z,99132.72
2023-04-14T05:05:20.481Z,99118.13
2023-04-14T05:06:02.371Z,99142.66
2023-04-14T05:06:43.939Z,99072.31
2023-04-14T05:07:25.497Z,99126.56
2023-04-14T05:08:07.759Z,99134.16
2023-04-14T05:08:53.492Z,99141.56
2023-04-14T05:09:35.392Z,99138.63
2023-04-14T05:10:17.144Z,99108.75
2023-04-14T05:10:58.899Z,99140.91
2023-04-14T05:11:41.462Z,99137.22
2023-04-14T05:12:23.192Z,99130.16
2023-04-14T05:13:04.817Z,99142.78
2023-04-14T05:13:46.873Z,99138.16
2023-04-14T05:14:28.450Z,99146.00
2023-04-14T05:15:10.898Z,99143.69
2023-04-14T05:15:53.084Z,99119.19
2023-04-14T05:16:34.743Z,99140.72
2023-04-14T05:17:16.337Z,99122.63
2023-04-14T05:17:59.130Z,99144.84
2023-04-14T05:18:42.014Z,99135.63
2023-04-14T05:19:23.653Z,99130.84
2023-04-14T05:20:05.850Z,99137.31
2023-04-14T05:20:47.506Z,99140.19
2023-04-14T05:21:29.102Z,99128.94
2023-04-14T05:22:10.935Z,99144.13
2023-04-14T05:22:53.201Z,99134.94
2023-04-14T05:23:37.398Z,99146.72
2023-04-14T05:24:18.958Z,99128.34
2023-04-14T05:25:01.307Z,99143.97
2023-04-14T05:25:42.946Z,99123.13
2023-04-14T05:27:14.077Z,99143.53
2023-04-14T05:27:56.308Z,99119.88
2023-04-14T05:28:38.217Z,99119.88
2023-04-14T05:29:20.128Z,99141.56
2023-04-14T05:30:01.930Z,99109.72
2023-04-14T05:30:43.488Z,99123.16
2023-04-14T05:31:25.461Z,99145.38
2023-04-14T05:32:07.406Z,99098.88
2023-04-14T05:32:49.116Z,99140.94
2023-04-14T05:33:30.989Z,99130.44
2023-04-14T05:34:12.628Z,99139.38
2023-04-14T05:34:54.235Z,99145.25
2023-04-14T05:35:36.098Z,99135.94
2023-04-14T05:36:17.780Z,99126.59
2023-04-14T05:36:59.473Z,99129.88
2023-04-14T05:37:41.104Z,99102.75
2023-04-14T05:38:22.825Z,99137.47
2023-04-14T05:39:04.588Z,99109.81
2023-04-14T05:39:46.237Z,99145.66
2023-04-14T05:40:28.478Z,99144.34
2023-04-14T05:41:10.220Z,99144.03
2023-04-14T05:41:51.873Z,99109.19
2023-04-14T05:42:33.448Z,99091.75
2023-04-14T05:43:16.068Z,99080.25
2023-04-14T05:43:57.719Z,99145.47
2023-04-14T05:44:39.355Z,99145.47
2023-04-14T05:45:21.112Z,99152.50
2023-04-14T05:46:02.826Z,99144.81
2023-04-14T05:46:44.512Z,99141.66
2023-04-14T05:47:26.455Z,99133.47
2023-04-14T05:48:08.542Z,99140.69
2023-04-14T05:48:50.200Z,99144.22
2023-04-14T05:49:31.857Z,99151.44
2023-04-14T05:50:13.626Z,99157.19
2023-04-14T05:50:55.412Z,99140.81
2023-04-14T05:51:36.964Z,99155.59
2023-04-14T05:52:18.587Z,99156.78
2023-04-14T05:53:00.177Z,99135.94
2023-04-14T05:53:41.751Z,99155.16
2023-04-14T05:54:23.408Z,99139.94
2023-04-14T05:55:05.354Z,99145.50
2023-04-14T05:55:48.705Z,99153.91
2023-04-14T05:56:30.556Z,99162.81
2023-04-14T05:57:12.170Z,99134.75
2023-04-14T05:57:53.778Z,99162.69
2023-04-14T05:58:35.399Z,99160.41
2023-04-14T05:59:17.353Z,99160.75
2023-04-14T05:59:59.027Z,99160.28
2023-04-14T06:00:40.773Z,99153.72
2023-04-14T06:01:22.350Z,99161.94
2023-04-14T06:02:07.298Z,99135.88
2023-04-14T06:02:49.372Z,99151.63
2023-04-14T06:03:31.924Z,99163.00
2023-04-14T06:04:13.898Z,99153.63
2023-04-14T06:04:56.304Z,99128.22
2023-04-14T06:05:37.923Z,99160.56
2023-04-14T06:06:22.476Z,99133.47
2023-04-14T06:07:04.152Z,99156.31
2023-04-14T06:07:46.976Z,99153.22
2023-04-14T06:08:30.352Z,99109.84
2023-04-14T06:09:12.022Z,99150.75
2023-04-14T06:09:54.140Z,99119.56
2023-04-14T06:10:35.837Z,99121.72
2023-04-14T06:11:17.497Z,99141.56
2023-04-14T06:11:59.209Z,99146.19
2023-04-14T06:12:40.941Z,99131.41
2023-04-14T06:13:22.974Z,99134.66
2023-04-14T06:14:05.551Z,99133.03
2023-04-14T06:14:47.207Z,99138.78
2023-04-14T06:15:29.607Z,99139.91
2023-04-14T06:16:11.184Z,99136.16
2023-04-14T06:16:52.911Z,99120.88
2023-04-14T06:17:35.363Z,99137.31
2023-04-14T06:18:17.062Z,99140.56
2023-04-14T06:18:58.854Z,99123.50
2023-04-14T06:19:40.725Z,99130.06
2023-04-14T06:20:22.380Z,99126.09
2023-04-14T06:21:04.274Z,99126.91
2023-04-14T06:21:47.041Z,99130.06
2023-04-14T06:22:32.458Z,99126.13
2023-04-14T06:23:14.123Z,99130.72
2023-04-14T06:23:55.968Z,99087.41
2023-04-14T06:24:37.606Z,99119.88
2023-04-14T06:25:19.330Z,99130.03
2023-04-14T06:26:01.289Z,99123.66
2023-04-14T06:26:43.082Z,99125.44
2023-04-14T06:27:25.285Z,99130.66
2023-04-14T06:28:07.504Z,99097.81
2023-04-14T06:28:49.160Z,99128.66
2023-04-14T06:29:31.035Z,99109.28
2023-04-14T06:30:15.300Z,99128.50
2023-04-14T06:30:57.006Z,99127.19
2023-04-14T06:31:38.728Z,99130.97
2023-04-14T06:32:20.544Z,99133.78
2023-04-14T06:33:04.701Z,99120.81
2023-04-14T06:33:46.596Z,99128.34
2023-04-14T06:34:28.189Z,99131.47
2023-04-14T06:35:19.118Z,99118.16
2023-04-14T06:36:04.127Z,99132.47
2023-04-14T06:36:45.683Z,99120.81
2023-04-14T06:37:27.290Z,99131.97
2023-04-14T06:38:09.082Z,99129.50
2023-04-14T06:38:50.687Z,99129.50
2023-04-14T06:39:32.312Z,99129.00
2023-04-14T06:40:13.975Z,99128.00
2023-04-14T06:40:55.619Z,99121.03
2023-04-14T06:41:37.236Z,99128.91
2023-04-14T06:42:19.381Z,99126.19
2023-04-14T06:43:01.097Z,99128.97
2023-04-14T06:43:43.120Z,99130.88
2023-04-14T06:44:24.840Z,99119.94
2023-04-14T06:45:06.928Z,99126.59
2023-04-14T06:45:50.688Z,99108.19
2023-04-14T06:46:35.924Z,99072.72
2023-04-14T06:47:19.680Z,99123.72
2023-04-14T06:48:01.294Z,99123.31
2023-04-14T06:48:43.638Z,99114.22
2023-04-14T06:49:25.313Z,99114.91
2023-04-14T06:50:07.309Z,99108.56
2023-04-14T06:50:56.278Z,99119.78
2023-04-14T06:51:39.231Z,99116.31
2023-04-14T06:52:20.886Z,99124.97
2023-04-14T06:53:02.987Z,99119.75
2023-04-14T06:53:45.024Z,99105.69
2023-04-14T06:54:26.820Z,99060.72
2023-04-14T06:55:09.008Z,99116.94
2023-04-14T06:56:08.929Z,99107.91
2023-04-14T06:56:50.789Z,99108.97
2023-04-14T06:57:32.438Z,99065.28
2023-04-14T06:58:14.169Z,99095.91
2023-04-14T06:58:55.874Z,99102.53
2023-04-14T06:59:37.697Z,99109.38
2023-04-14T07:00:19.602Z,99112.50
2023-04-14T07:01:02.817Z,99092.41
2023-04-14T07:01:44.671Z,99103.69
2023-04-14T07:02:26.669Z,99086.53
2023-04-14T07:03:09.327Z,99058.78
2023-04-14T07:03:51.107Z,99097.56
2023-04-14T07:04:32.992Z,99102.31
2023-04-14T07:05:15.001Z,99113.63
2023-04-14T07:06:08.225Z,99104.53
2023-04-14T07:06:49.871Z,99077.06
2023-04-14T07:07:37.380Z,99076.13
2023-04-14T07:08:20.178Z,99092.47
2023-04-14T07:09:01.845Z,99105.56
2023-04-14T07:09:43.664Z,99097.25
2023-04-14T07:10:25.376Z,99098.34
2023-04-14T07:11:10.331Z,99108.16
2023-04-14T07:11:53.497Z,99110.22
2023-04-14T07:12:35.438Z,99068.19
2023-04-14T07:13:17.122Z,99104.72
2023-04-14T07:13:58.893Z,99110.84
2023-04-14T07:14:41.332Z,99129.41
2023-04-14T07:15:22.960Z,99130.19
2023-04-14T07:16:06.582Z,99131.81
2023-04-14T07:16:48.465Z,99147.66
2023-04-14T07:17:30.517Z,99134.72
2023-04-14T07:18:12.367Z,99127.72
2023-04-14T07:18:54.072Z,99110.72
2023-04-14T07:19:35.785Z,99115.44
2023-04-14T07:20:17.479Z,99116.31
2023-04-14T07:20:59.787Z,99126.25
2023-04-14T07:21:41.706Z,99128.91
2023-04-14T07:22:23.369Z,99125.06
2023-04-14T07:23:04.949Z,99116.13
2023-04-14T07:23:46.596Z,99110.09
2023-04-14T07:24:28.237Z,99111.44
2023-04-14T07:25:10.163Z,99110.66
2023-04-14T07:25:54.015Z,99114.75
2023-04-14T07:26:35.652Z,99113.59
2023-04-14T07:27:17.327Z,99115.66
2023-04-14T07:28:04.626Z,99114.22
2023-04-14T07:28:47.118Z,99109.13
2023-04-14T07:29:29.340Z,99123.19
2023-04-14T07:30:11.544Z,99136.53
2023-04-14T07:30:53.569Z,99126.38
2023-04-14T07:31:37.952Z,99123.09
2023-04-14T07:32:19.761Z,99112.06
2023-04-14T07:33:02.371Z,99122.03
2023-04-14T07:33:44.137Z,99124.09
2023-04-14T07:34:25.970Z,99130.78
2023-04-14T07:35:10.808Z,99124.22
2023-04-14T07:36:01.893Z,99115.66
2023-04-14T07:36:45.432Z,99112.63
2023-04-14T07:37:27.170Z,99117.97
2023-04-14T07:38:08.815Z,99113.69
2023-04-14T07:38:51.514Z,99130.22
2023-04-14T07:39:33.468Z,99128.31
2023-04-14T07:40:15.886Z,99129.53
2023-04-14T07:40:57.525Z,99109.34
2023-04-14T07:41:39.176Z,99127.56
2023-04-14T07:42:20.870Z,99129.41
2023-04-14T07:43:02.802Z,99129.69
2023-04-14T07:43:44.544Z,99132.13
2023-04-14T07:44:26.390Z,99114.81
2023-04-14T07:45:08.570Z,99089.69
2023-04-14T07:45:52.410Z,99126.94
2023-04-14T07:46:34.143Z,99119.22
2023-04-14T07:47:16.180Z,99104.34
2023-04-14T07:47:58.285Z,99112.75
2023-04-14T07:48:40.270Z,99124.59
2023-04-14T07:49:21.866Z,99128.88
2023-04-14T07:50:03.862Z,99106.63
2023-04-14T07:50:48.263Z,99109.06
2023-04-14T07:51:29.878Z,99121.13
2023-04-14T07:52:12.574Z,99119.91
2023-04-14T07:52:55.295Z,99128.09
2023-04-14T07:53:42.212Z,99128.47
2023-04-14T07:54:24.360Z,99114.19
2023-04-14T07:55:06.196Z,99116.22
2023-04-14T07:55:47.841Z,99126.63
2023-04-14T07:56:29.477Z,99082.38
2023-04-14T07:57:11.270Z,99123.59
2023-04-14T07:57:52.924Z,99108.91
2023-04-14T07:58:34.539Z,99121.72
2023-04-14T07:59:16.391Z,99107.47
2023-04-14T07:59:58.061Z,99127.47
2023-04-14T08:00:39.694Z,99104.81
2023-04-14T08:01:21.354Z,99106.03
2023-04-14T08:02:03.092Z,99122.34
2023-04-14T08:02:45.067Z,99132.75
2023-04-14T08:03:27.100Z,99114.00
2023-04-14T08:04:09.284Z,99134.00
2023-04-14T08:04:51.023Z,99135.63
2023-04-14T08:05:32.763Z,99129.31
2023-04-14T08:06:14.457Z,99115.63
2023-04-14T08:06:56.448Z,99114.41
2023-04-14T08:07:38.681Z,99128.06
2023-04-14T08:08:20.393Z,99127.88
2023-04-14T08:09:02.515Z,99125.38
2023-04-14T08:09:44.504Z,99123.75
2023-04-14T08:10:26.285Z,99116.59
2023-04-14T08:11:07.933Z,99135.38
2023-04-14T08:11:49.528Z,99126.16
2023-04-14T08:12:31.465Z,99122.28
2023-04-14T08:13:13.066Z,99139.44
2023-04-14T08:13:54.678Z,99137.19
2023-04-14T08:14:36.401Z,99126.19
2023-04-14T08:15:18.268Z,99125.38
2023-04-14T08:15:59.956Z,99133.16
2023-04-14T08:16:41.885Z,99130.69
2023-04-14T08:17:24.418Z,99134.94
2023-04-14T08:18:06.570Z,99115.09
2023-04-14T08:18:48.997Z,99137.69
2023-04-14T08:19:31.604Z,99138.84
2023-04-14T08:20:13.336Z,99131.25
2023-04-14T08:20:54.971Z,99137.38
2023-04-14T08:21:36.710Z,99147.84
2023-04-14T08:22:18.548Z,99134.63
2023-04-14T08:23:00.267Z,99140.38
2023-04-14T08:23:42.104Z,99121.00
2023-04-14T08:24:23.812Z,99132.22
2023-04-14T08:25:06.618Z,99136.09
2023-04-14T08:25:48.513Z,99139.94
2023-04-14T08:26:30.484Z,99144.84
2023-04-14T08:27:12.089Z,99129.91
2023-04-14T08:27:53.757Z,99143.50
2023-04-14T08:28:35.673Z,99145.97
2023-04-14T08:29:17.346Z,99138.25
2023-04-14T08:29:59.063Z,99149.84
2023-04-14T08:30:41.368Z,99144.06
2023-04-14T08:31:24.464Z,99142.75
2023-04-14T08:32:06.439Z,99125.75
2023-04-14T08:32:48.877Z,99140.44
2023-04-14T08:33:30.742Z,99149.72
2023-04-14T08:34:12.499Z,99141.53
2023-04-14T08:35:37.798Z,99140.47
2023-04-14T08:36:01.179Z,99136.94
2023-04-14T08:36:42.882Z,99123.88
2023-04-14T08:37:24.532Z,99151.53
2023-04-14T08:38:06.261Z,99151.47